createdAt,value
2023-04-07T00:01:38.922Z,2.13
2023-04-07T00:04:07.363Z,2.15
2023-04-07T00:06:40.777Z,2.18
2023-04-07T00:09:16.023Z,2.20
2023-04-07T00:12:03.238Z,2.20
2023-04-07T00:14:31.726Z,2.19
2023-04-07T00:17:00.417Z,2.18
2023-04-07T00:19:33.814Z,2.21
2023-04-07T00:22:04.823Z,2.23
2023-04-07T00:24:34.612Z,2.27
2023-04-07T00:27:06.011Z,2.29
2023-04-07T00:29:34.624Z,2.31
2023-04-07T00:32:08.740Z,2.32
2023-04-07T00:34:46.210Z,2.31
2023-04-07T00:37:17.769Z,2.33
2023-04-07T00:39:46.909Z,2.34
2023-04-07T00:42:22.363Z,2.35
2023-04-07T00:44:50.664Z,2.38
2023-04-07T00:47:21.334Z,2.42
2023-04-07T00:49:50.055Z,2.43
2023-04-07T00:52:27.000Z,2.44
2023-04-07T00:55:12.275Z,2.44
2023-04-07T00:57:46.957Z,2.46
2023-04-07T01:00:15.720Z,2.49
2023-04-07T01:02:52.658Z,2.52
2023-04-07T01:05:30.602Z,2.53
2023-04-07T01:08:33.757Z,2.54
2023-04-07T01:11:11.154Z,2.52
2023-04-07T01:13:48.782Z,2.48
2023-04-07T01:16:41.985Z,2.40
2023-04-07T01:19:20.905Z,2.35
2023-04-07T01:21:52.533Z,2.31
2023-04-07T01:24:46.917Z,2.26
2023-04-07T01:27:44.039Z,2.23
2023-04-07T01:30:16.347Z,2.21
2023-04-07T01:32:50.496Z,2.19
2023-04-07T01:35:20.442Z,2.12
2023-04-07T01:37:50.780Z,2.09
2023-04-07T01:40:25.834Z,2.09
2023-04-07T01:43:20.620Z,2.10
2023-04-07T01:45:50.543Z,2.12
2023-04-07T01:48:22.432Z,2.10
2023-04-07T01:50:54.497Z,2.12
2023-04-07T01:53:24.432Z,2.12
2023-04-07T01:55:54.979Z,2.15
2023-04-07T01:58:23.350Z,2.21
2023-04-07T02:01:03.843Z,2.28
2023-04-07T02:03:49.874Z,2.32
2023-04-07T02:06:22.571Z,2.38
2023-04-07T02:08:58.938Z,2.40
2023-04-07T02:11:33.039Z,2.42
2023-04-07T02:14:02.780Z,2.41
2023-04-07T02:16:32.071Z,2.41
2023-04-07T02:19:04.061Z,2.39
2023-04-07T02:21:40.936Z,2.37
2023-04-07T02:24:12.736Z,2.36
2023-04-07T02:26:44.656Z,2.36
2023-04-07T02:29:16.198Z,2.37
2023-04-07T02:31:44.567Z,2.37
2023-04-07T02:34:13.360Z,2.38
2023-04-07T02:36:41.792Z,2.35
2023-04-07T02:39:10.872Z,2.33
2023-04-07T02:41:39.149Z,2.31
2023-04-07T02:44:16.666Z,2.26
2023-04-07T02:46:47.972Z,2.26
2023-04-07T02:49:16.528Z,2.29
2023-04-07T02:51:47.133Z,2.33
2023-04-07T02:54:25.718Z,2.34
2023-04-07T02:56:54.023Z,2.35
2023-04-07T02:59:25.160Z,2.35
2023-04-07T03:01:53.527Z,2.31
2023-04-07T03:04:24.414Z,2.32
2023-04-07T03:06:53.278Z,2.35
2023-04-07T03:09:21.582Z,2.38
2023-04-07T03:11:57.263Z,2.43
2023-04-07T03:14:26.083Z,2.46
2023-04-07T03:16:54.972Z,2.48
2023-04-07T03:19:35.632Z,2.53
2023-04-07T03:22:04.215Z,2.57
2023-04-07T03:24:32.782Z,2.58
2023-04-07T03:27:02.571Z,2.60
2023-04-07T03:29:42.399Z,2.61
2023-04-07T03:32:10.545Z,2.61
2023-04-07T03:34:46.490Z,2.61
2023-04-07T03:37:14.810Z,2.65
2023-04-07T03:39:50.301Z,2.69
2023-04-07T03:42:24.654Z,2.70
2023-04-07T03:45:04.860Z,2.69
2023-04-07T03:47:33.834Z,2.65
2023-04-07T03:50:02.848Z,2.68
2023-04-07T03:52:34.079Z,2.69
2023-04-07T03:55:02.256Z,2.71
2023-04-07T03:57:54.383Z,2.71
2023-04-07T04:00:49.985Z,2.68
2023-04-07T04:03:19.208Z,2.63
2023-04-07T04:05:47.670Z,2.60
2023-04-07T04:08:18.955Z,2.55
2023-04-07T04:10:47.542Z,2.54
2023-04-07T04:13:19.053Z,2.52
2023-04-07T04:15:47.597Z,2.49
2023-04-07T04:18:16.611Z,2.44
2023-04-07T04:20:44.873Z,2.39
2023-04-07T04:23:13.128Z,2.35
2023-04-07T04:25:41.778Z,2.32
2023-04-07T04:28:10.592Z,2.28
2023-04-07T04:30:49.662Z,2.26
2023-04-07T04:33:37.964Z,2.27
2023-04-07T04:36:26.767Z,2.22
2023-04-07T04:38:57.839Z,2.24
2023-04-07T04:41:33.523Z,2.26
2023-04-07T04:44:01.984Z,2.27
2023-04-07T04:46:33.597Z,2.31
2023-04-07T04:49:02.170Z,2.36
2023-04-07T04:51:30.455Z,2.37
2023-04-07T04:54:01.595Z,2.37
2023-04-07T04:56:32.958Z,2.34
2023-04-07T04:59:06.555Z,2.35
2023-04-07T05:01:35.026Z,2.39
2023-04-07T05:04:11.504Z,2.41
2023-04-07T05:06:39.816Z,2.43
2023-04-07T05:09:08.159Z,2.47
2023-04-07T05:11:45.683Z,2.48
2023-04-07T05:14:14.312Z,2.51
2023-04-07T05:16:42.655Z,2.53
2023-04-07T05:19:14.244Z,2.57
2023-04-07T05:21:45.800Z,2.60
2023-04-07T05:24:14.222Z,2.58
2023-04-07T05:26:54.403Z,2.58
2023-04-07T05:29:23.836Z,2.58
2023-04-07T05:31:52.006Z,2.56
2023-04-07T05:34:20.490Z,2.55
2023-04-07T05:36:48.686Z,2.58
2023-04-07T05:39:22.811Z,2.59
2023-04-07T05:41:52.408Z,2.58
2023-04-07T05:44:39.893Z,2.56
2023-04-07T05:47:09.354Z,2.58
2023-04-07T05:49:37.782Z,2.55
2023-04-07T05:52:09.170Z,2.54
2023-04-07T05:54:37.386Z,2.53
2023-04-07T05:57:33.228Z,2.54
2023-04-07T06:00:23.894Z,2.57
2023-04-07T06:02:52.300Z,2.56
2023-04-07T06:05:21.425Z,2.57
2023-04-07T06:07:49.853Z,2.58
2023-04-07T06:10:18.278Z,2.60
2023-04-07T06:12:46.901Z,2.65
2023-04-07T06:15:15.183Z,2.67
2023-04-07T06:17:45.846Z,2.68
2023-04-07T06:20:14.239Z,2.67
2023-04-07T06:22:42.461Z,2.70
2023-04-07T06:25:10.806Z,2.74
2023-04-07T06:27:39.423Z,2.76
2023-04-07T06:30:08.689Z,2.76
2023-04-07T06:32:37.054Z,2.78
2023-04-07T06:35:05.788Z,2.79
2023-04-07T06:37:34.036Z,2.78
2023-04-07T06:40:02.367Z,2.78
2023-04-07T06:42:31.037Z,2.72
2023-04-07T06:44:59.286Z,2.73
2023-04-07T06:47:28.439Z,2.71
2023-04-07T06:49:56.933Z,2.70
2023-04-07T06:52:25.494Z,2.71
2023-04-07T06:54:54.167Z,2.72
2023-04-07T06:57:25.164Z,2.69
2023-04-07T06:59:53.598Z,2.58
2023-04-07T07:02:22.076Z,2.46
2023-04-07T07:04:51.350Z,2.35
2023-04-07T07:07:19.851Z,2.24
2023-04-07T07:09:48.331Z,2.15
2023-04-07T07:12:18.307Z,2.06
2023-04-07T07:15:08.317Z,2.04
2023-04-07T07:17:44.130Z,2.04
2023-04-07T07:20:12.875Z,1.99
2023-04-07T07:22:41.767Z,1.95
2023-04-07T07:25:10.531Z,1.98
2023-04-07T07:27:39.926Z,2.00
2023-04-07T07:30:17.425Z,1.94
2023-04-07T07:32:46.742Z,1.89
2023-04-07T07:35:15.600Z,1.91
2023-04-07T07:38:07.488Z,1.98
2023-04-07T07:40:35.916Z,2.01
2023-04-07T07:43:04.116Z,1.98
2023-04-07T07:45:32.330Z,2.02
2023-04-07T07:48:01.153Z,2.05
2023-04-07T07:50:35.295Z,2.04
2023-04-07T07:53:03.479Z,2.05
2023-04-07T07:55:31.733Z,2.07
2023-04-07T07:58:00.336Z,2.13
2023-04-07T08:00:29.124Z,2.24
2023-04-07T08:02:57.438Z,2.31
2023-04-07T08:05:26.465Z,2.36
2023-04-07T08:07:55.721Z,2.39
2023-04-07T08:10:25.611Z,2.41
2023-04-07T08:12:53.800Z,2.40
2023-04-07T08:15:22.039Z,2.39
2023-04-07T08:17:50.504Z,2.26
2023-04-07T08:20:19.653Z,2.24
2023-04-07T08:22:48.951Z,2.32
2023-04-07T08:25:26.153Z,2.34
2023-04-07T08:27:55.755Z,2.35
2023-04-07T08:30:32.682Z,2.36
2023-04-07T08:33:01.649Z,2.35
2023-04-07T08:35:30.120Z,2.37
2023-04-07T08:37:58.769Z,2.28
2023-04-07T08:40:27.378Z,2.19
2023-04-07T08:42:58.297Z,2.19
2023-04-07T08:45:27.084Z,2.22
2023-04-07T08:47:59.670Z,2.24
2023-04-07T08:50:29.043Z,2.31
2023-04-07T08:53:00.917Z,2.42
2023-04-07T08:55:29.342Z,2.45
2023-04-07T08:58:00.126Z,2.47
2023-04-07T09:00:30.516Z,2.47
2023-04-07T09:03:01.185Z,2.51
2023-04-07T09:05:31.095Z,2.53
2023-04-07T09:07:59.517Z,2.47
2023-04-07T09:10:27.638Z,2.44
2023-04-07T09:12:58.587Z,2.45
2023-04-07T09:15:31.290Z,2.39
2023-04-07T09:17:59.811Z,2.28
2023-04-07T09:20:28.250Z,2.28
2023-04-07T09:22:56.938Z,2.33
2023-04-07T09:25:29.974Z,2.36
2023-04-07T09:28:25.898Z,2.37
2023-04-07T09:30:55.909Z,2.34
2023-04-07T09:33:43.260Z,2.39
2023-04-07T09:36:12.590Z,2.46
2023-04-07T09:38:42.139Z,2.55
2023-04-07T09:41:17.759Z,2.60
2023-04-07T09:43:47.825Z,2.58
2023-04-07T09:46:19.313Z,2.63
2023-04-07T09:48:48.744Z,2.67
2023-04-07T09:51:18.077Z,2.69
2023-04-07T09:53:51.956Z,2.70
2023-04-07T09:56:25.164Z,2.71
2023-04-07T09:58:53.490Z,2.69
2023-04-07T10:01:22.379Z,2.73
2023-04-07T10:03:51.805Z,2.73
2023-04-07T10:06:20.856Z,2.72
2023-04-07T10:08:49.326Z,2.71
2023-04-07T10:11:18.242Z,2.67
2023-04-07T10:13:47.112Z,2.66
2023-04-07T10:16:16.185Z,2.66
2023-04-07T10:18:53.662Z,2.65
2023-04-07T10:21:23.372Z,2.66
2023-04-07T10:24:43.422Z,2.68
2023-04-07T10:27:19.820Z,2.65
2023-04-07T10:29:58.700Z,2.61
2023-04-07T10:32:52.006Z,2.61
2023-04-07T10:35:22.373Z,2.61
2023-04-07T10:38:08.823Z,2.58
2023-04-07T10:40:38.583Z,2.55
2023-04-07T10:43:09.813Z,2.50
2023-04-07T10:45:52.551Z,2.46
2023-04-07T10:48:33.257Z,2.44
2023-04-07T10:51:08.609Z,2.43
2023-04-07T10:53:37.171Z,2.41
2023-04-07T10:56:06.072Z,2.41
2023-04-07T10:58:35.113Z,2.39
2023-04-07T11:01:41.892Z,2.38
2023-04-07T11:04:10.356Z,2.43
2023-04-07T11:06:48.324Z,2.45
2023-04-07T11:09:29.021Z,2.50
2023-04-07T11:11:57.934Z,2.51
2023-04-07T11:14:28.581Z,2.61
2023-04-07T11:16:57.162Z,2.69
2023-04-07T11:19:25.598Z,2.75
2023-04-07T11:22:32.960Z,2.75
2023-04-07T11:25:01.526Z,2.69
2023-04-07T11:27:31.894Z,2.64
2023-04-07T11:30:01.075Z,2.67
2023-04-07T11:32:30.221Z,2.68
2023-04-07T11:34:59.413Z,2.66
2023-04-07T11:37:29.177Z,2.63
2023-04-07T11:39:59.143Z,2.60
2023-04-07T11:42:40.501Z,2.66
2023-04-07T11:45:22.407Z,2.77
2023-04-07T11:47:51.338Z,2.88
2023-04-07T11:50:40.142Z,2.95
2023-04-07T11:53:09.314Z,2.99
2023-04-07T11:55:37.558Z,2.96
2023-04-07T11:58:07.073Z,3.01
2023-04-07T12:00:35.498Z,3.10
2023-04-07T12:03:14.631Z,3.13
2023-04-07T12:05:46.848Z,3.13
2023-04-07T12:08:19.134Z,3.11
2023-04-07T12:10:48.422Z,3.13
2023-04-07T12:13:19.904Z,3.17
2023-04-07T12:15:48.398Z,3.19
2023-04-07T12:18:18.474Z,3.19
2023-04-07T12:20:46.854Z,3.18
2023-04-07T12:23:15.097Z,3.18
2023-04-07T12:25:43.288Z,3.15
2023-04-07T12:28:11.789Z,3.16
2023-04-07T12:30:39.932Z,3.18
2023-04-07T12:33:11.400Z,3.16
2023-04-07T12:35:39.479Z,3.17
2023-04-07T12:38:16.692Z,3.18
2023-04-07T12:40:44.938Z,3.22
2023-04-07T12:43:13.806Z,3.23
2023-04-07T12:45:50.859Z,3.24
2023-04-07T12:48:22.396Z,3.19
2023-04-07T12:50:50.530Z,3.06
2023-04-07T12:53:18.853Z,2.95
2023-04-07T12:55:50.225Z,2.88
2023-04-07T12:58:19.376Z,2.95
2023-04-07T13:00:47.930Z,3.02
2023-04-07T13:03:17.049Z,3.08
2023-04-07T13:05:45.564Z,3.07
2023-04-07T13:08:14.714Z,3.03
2023-04-07T13:10:43.138Z,2.89
2023-04-07T13:13:11.719Z,2.88
2023-04-07T13:15:42.847Z,2.95
2023-04-07T13:18:22.044Z,3.01
2023-04-07T13:21:02.921Z,3.07
2023-04-07T13:23:43.219Z,3.06
2023-04-07T13:26:12.287Z,3.01
2023-04-07T13:28:41.726Z,2.98
2023-04-07T13:31:12.051Z,2.89
2023-04-07T13:33:41.442Z,2.94
2023-04-07T13:36:10.495Z,2.99
2023-04-07T13:38:38.803Z,3.07
2023-04-07T13:41:38.522Z,3.09
2023-04-07T13:44:07.384Z,3.20
2023-04-07T13:46:35.908Z,3.28
2023-04-07T13:49:04.397Z,3.35
2023-04-07T13:51:33.125Z,3.40
2023-04-07T13:54:04.828Z,3.41
2023-04-07T13:56:33.205Z,3.40
2023-04-07T13:59:02.520Z,3.40
2023-04-07T14:01:31.347Z,3.33
2023-04-07T14:04:01.096Z,3.31
2023-04-07T14:06:29.825Z,3.27
2023-04-07T14:08:58.685Z,3.22
2023-04-07T14:11:30.208Z,3.24
2023-04-07T14:13:58.457Z,3.31
2023-04-07T14:16:26.895Z,3.31
2023-04-07T14:18:56.409Z,3.30
2023-04-07T14:21:24.979Z,3.30
2023-04-07T14:23:53.654Z,3.29
2023-04-07T14:26:22.333Z,3.32
2023-04-07T14:28:50.611Z,3.29
2023-04-07T14:31:19.078Z,3.21
2023-04-07T14:33:47.661Z,3.20
2023-04-07T14:36:19.315Z,3.23
2023-04-07T14:38:47.991Z,3.27
2023-04-07T14:41:23.689Z,3.24
2023-04-07T14:43:56.477Z,3.27
2023-04-07T14:46:26.935Z,3.31
2023-04-07T14:48:56.129Z,3.34
2023-04-07T14:51:27.718Z,3.35
2023-04-07T14:54:03.961Z,3.37
2023-04-07T14:56:41.909Z,3.35
2023-04-07T14:59:10.970Z,3.31
2023-04-07T15:01:42.738Z,3.29
2023-04-07T15:04:12.378Z,3.32
2023-04-07T15:06:47.443Z,3.34
2023-04-07T15:09:16.015Z,3.38
2023-04-07T15:11:44.439Z,3.41
2023-04-07T15:14:12.936Z,3.46
2023-04-07T15:16:41.342Z,3.48
2023-04-07T15:19:09.667Z,3.49
2023-04-07T15:21:46.768Z,3.51
2023-04-07T15:24:16.546Z,3.51
2023-04-07T15:26:45.113Z,3.51
2023-04-07T15:29:14.253Z,3.49
2023-04-07T15:31:56.199Z,3.53
2023-04-07T15:34:24.581Z,3.57
2023-04-07T15:36:52.963Z,3.58
2023-04-07T15:39:24.348Z,3.55
2023-04-07T15:41:53.008Z,3.55
2023-04-07T15:44:21.557Z,3.57
2023-04-07T15:46:54.346Z,3.51
2023-04-07T15:49:25.654Z,3.47
2023-04-07T15:51:54.359Z,3.46
2023-04-07T15:54:22.680Z,3.47
2023-04-07T15:56:51.897Z,3.48
2023-04-07T15:59:20.215Z,3.49
2023-04-07T16:01:49.285Z,3.48
2023-04-07T16:04:17.735Z,3.47
2023-04-07T16:06:46.243Z,3.48
2023-04-07T16:09:15.204Z,3.50
2023-04-07T16:11:43.716Z,3.52
2023-04-07T16:14:12.206Z,3.49
2023-04-07T16:16:41.745Z,3.46
2023-04-07T16:19:10.621Z,3.45
2023-04-07T16:21:39.680Z,3.47
2023-04-07T16:24:07.907Z,3.49
2023-04-07T16:26:36.024Z,3.51
2023-04-07T16:29:04.258Z,3.52
2023-04-07T16:31:32.616Z,3.53
2023-04-07T16:34:02.009Z,3.54
2023-04-07T16:36:30.919Z,3.54
2023-04-07T16:38:59.133Z,3.53
2023-04-07T16:41:27.716Z,3.53
2023-04-07T16:43:56.127Z,3.52
2023-04-07T16:46:28.431Z,3.52
2023-04-07T16:49:00.066Z,3.54
2023-04-07T16:51:29.735Z,3.58
2023-04-07T16:53:57.936Z,3.59
2023-04-07T16:56:26.416Z,3.63
2023-04-07T16:58:56.382Z,3.64
2023-04-07T17:01:24.687Z,3.63
2023-04-07T17:03:53.555Z,3.62
2023-04-07T17:06:22.218Z,3.60
2023-04-07T17:08:50.758Z,3.58
2023-04-07T17:11:26.494Z,3.55
2023-04-07T17:14:01.607Z,3.54
2023-04-07T17:16:35.439Z,3.54
2023-04-07T17:19:03.714Z,3.51
2023-04-07T17:21:32.203Z,3.51
2023-04-07T17:24:00.527Z,3.51
2023-04-07T17:26:29.502Z,3.52
2023-04-07T17:28:57.849Z,3.52
2023-04-07T17:31:26.323Z,3.53
2023-04-07T17:33:54.713Z,3.53
2023-04-07T17:36:22.895Z,3.51
2023-04-07T17:38:51.181Z,3.50
2023-04-07T17:41:20.173Z,3.50
2023-04-07T17:43:48.699Z,3.51
2023-04-07T17:46:17.204Z,3.51
2023-04-07T17:48:45.489Z,3.49
2023-04-07T17:51:14.534Z,3.47
2023-04-07T17:54:12.921Z,3.46
2023-04-07T17:56:57.072Z,3.47
2023-04-07T18:00:07.783Z,3.48
2023-04-07T18:03:20.163Z,3.47
2023-04-07T18:06:25.025Z,3.47
2023-04-07T18:09:00.958Z,3.48
2023-04-07T18:11:29.665Z,3.50
2023-04-07T18:14:11.181Z,3.51
2023-04-07T18:17:35.726Z,3.52
2023-04-07T18:20:42.120Z,3.52
2023-04-07T18:32:27.701Z,3.48
2023-04-07T18:34:56.450Z,3.48
2023-04-07T18:37:29.761Z,3.49
2023-04-07T18:39:58.159Z,3.47
2023-04-07T18:42:26.434Z,3.47
2023-04-07T18:44:55.315Z,3.48
2023-04-07T18:47:23.515Z,3.49
2023-04-07T18:49:53.803Z,3.50
2023-04-07T18:52:22.238Z,3.52
2023-04-07T18:54:56.995Z,3.51
2023-04-07T18:57:31.366Z,3.51
2023-04-07T19:00:48.445Z,3.52
2023-04-07T19:03:23.665Z,3.50
2023-04-07T19:06:32.656Z,3.47
2023-04-07T19:09:53.426Z,3.50
2023-04-07T19:12:52.336Z,3.51
2023-04-07T19:15:24.142Z,3.52
2023-04-07T19:17:55.632Z,3.53
2023-04-07T19:20:24.094Z,3.56
2023-04-07T19:22:52.472Z,3.58
2023-04-07T19:25:21.005Z,3.58
2023-04-07T19:27:50.559Z,3.56
2023-04-07T19:30:18.909Z,3.54
2023-04-07T19:32:47.911Z,3.53
2023-04-07T19:35:17.074Z,3.52
2023-04-07T19:37:46.831Z,3.52
2023-04-07T19:40:16.783Z,3.54
2023-04-07T19:42:45.103Z,3.57
2023-04-07T19:45:46.353Z,3.58
2023-04-07T19:48:38.643Z,3.57
2023-04-07T19:51:56.891Z,3.56
2023-04-07T19:54:38.812Z,3.54
2023-04-07T19:57:43.861Z,3.52
2023-04-07T20:00:35.595Z,3.53
2023-04-07T20:03:27.090Z,3.51
2023-04-07T20:06:06.603Z,3.52
2023-04-07T20:08:56.650Z,3.53
2023-04-07T20:11:55.436Z,3.55
2023-04-07T20:14:32.287Z,3.55
2023-04-07T20:17:17.846Z,3.55
2023-04-07T20:20:10.737Z,3.55
2023-04-07T20:23:10.312Z,3.55
2023-04-07T20:25:50.312Z,3.57
2023-04-07T20:28:19.705Z,3.57
2023-04-07T20:30:55.596Z,3.60
2023-04-07T20:33:24.148Z,3.61
2023-04-07T20:35:53.134Z,3.63
2023-04-07T20:38:21.455Z,3.62
2023-04-07T20:40:50.092Z,3.59
2023-04-07T20:43:20.948Z,3.58
2023-04-07T20:45:49.941Z,3.59
2023-04-07T20:49:45.305Z,3.59
2023-04-07T20:56:51.960Z,3.62
2023-04-07T21:10:26.016Z,3.62
2023-04-07T21:13:52.300Z,3.58
2023-04-07T21:16:53.021Z,3.62
2023-04-07T21:19:21.318Z,3.64
2023-04-07T21:21:49.553Z,3.61
2023-04-07T21:24:18.446Z,3.60
2023-04-07T21:26:46.827Z,3.59
2023-04-07T21:29:15.144Z,3.59
2023-04-07T21:31:48.637Z,3.60
2023-04-07T21:34:17.688Z,3.61
2023-04-07T21:36:48.880Z,3.66
2023-04-07T21:39:17.263Z,3.69
2023-04-07T21:41:45.933Z,3.69
2023-04-07T21:44:15.048Z,3.66
2023-04-07T21:46:47.579Z,3.66
2023-04-07T21:49:18.197Z,3.68
2023-04-07T21:51:46.467Z,3.70
2023-04-07T21:54:15.199Z,3.70
2023-04-07T21:56:43.600Z,3.69
2023-04-07T21:59:11.875Z,3.69
2023-04-07T22:01:40.590Z,3.72
2023-04-07T22:04:09.588Z,3.74
2023-04-07T22:06:37.925Z,3.73
2023-04-07T22:09:07.748Z,3.74
2023-04-07T22:11:36.329Z,3.76
2023-04-07T22:14:04.635Z,3.78
2023-04-07T22:16:33.045Z,3.80
2023-04-07T22:19:01.390Z,3.81
2023-04-07T22:21:30.940Z,3.81
2023-04-07T22:23:59.379Z,3.81
2023-04-07T22:26:27.747Z,3.81
2023-04-07T22:28:56.237Z,3.82
2023-04-07T22:31:24.442Z,3.84
2023-04-07T22:33:53.129Z,3.86
2023-04-07T22:36:21.333Z,3.86
2023-04-07T22:38:49.896Z,3.87
2023-04-07T22:41:18.550Z,3.88
2023-04-07T22:43:47.216Z,3.90
2023-04-07T22:46:17.913Z,3.92
2023-04-07T22:48:46.144Z,3.93
2023-04-07T22:51:14.477Z,3.93
2023-04-07T22:53:42.751Z,3.92
2023-04-07T22:56:11.512Z,3.93
2023-04-07T22:58:39.846Z,3.96
2023-04-07T23:01:08.473Z,4.00
2023-04-07T23:03:46.209Z,4.02
2023-04-07T23:06:14.578Z,4.04
2023-04-07T23:08:50.626Z,4.04
2023-04-07T23:11:28.178Z,4.00
2023-04-07T23:13:56.516Z,4.01
2023-04-07T23:16:24.635Z,4.03
2023-04-07T23:18:53.398Z,4.05
2023-04-07T23:21:21.740Z,4.05
2023-04-07T23:23:59.930Z,4.06
2023-04-07T23:26:28.695Z,4.07
2023-04-07T23:28:57.008Z,4.07
2023-04-07T23:31:56.872Z,4.10
2023-04-07T23:34:25.495Z,4.12
2023-04-07T23:37:12.824Z,4.11
2023-04-07T23:39:41.347Z,4.12
2023-04-07T23:42:10.057Z,4.13
2023-04-07T23:44:40.832Z,4.15
2023-04-07T23:47:09.254Z,4.16
2023-04-07T23:49:57.446Z,4.18
2023-04-07T23:52:26.012Z,4.20
2023-04-07T23:54:54.175Z,4.23
2023-04-07T23:57:25.402Z,4.25
2023-04-07T23:59:53.644Z,4.24
